Goodfield, Illinois
Current Conditions -  °F | °C
As of 11:56 PM on Wednesday 28 Jan 2015 (Local Time) from KBMI Reporting Station
Clear Clear  
Wind Chill: 24°   Ceiling: Unl
Heat Index: 36°   Visibility: 10mi
Dew Point: 30°   Wind: 24mph
Humidity: 79%   Direction: 180°S
Pressure: 29.78"   Gusts: NA
Location:  40.63°N, 89.27°W
Report Text: KBMI 290556Z AUTO 18021KT 10SM CLR 02/M01 A2978 RMK AO2 58034 60000 T00221011 10022 20011 400441061 PK WND 18026/0526 SLP096
Loading
Personal Weather Stations






























Interactive Weather Map New forecast layout! Learn more

10-Day Weather Forecast

Advertisements
Track Severe Weather on mobile